Time;durP1;ratioP1;P1;durP2;ratioP2;P2;SDS_P1;SDS_P2;PMS_P1;PMS_P2;Temp;Humidity;BMP_temperature;BMP_pressure;BME280_temperature;BME280_humidity;BME280_pressure;Samples;Min_cycle;Max_cycle;Signal;HPM_P1;HPM_P2
2022/04/03 00:00:33;;;;;;;0.00;0.00;;;-0.50;99.40;;;;;;5055703;28;20044;-82
2022/04/03 00:03:00;;;;;;;0.00;0.00;;;-0.50;99.50;;;;;;5055870;28;20088;-83
2022/04/03 00:05:26;;;;;;;0.00;0.00;;;-0.50;99.90;;;;;;5056091;28;20052;-82
2022/04/03 00:07:54;;;;;;;0.00;0.00;;;-0.50;99.90;;;;;;5072335;28;20556;-82
2022/04/03 00:10:20;;;;;;;0.00;0.00;;;-0.60;99.90;;;;;;5055097;28;20049;-83
2022/04/03 00:12:47;;;;;;;0.00;0.00;;;-0.60;99.80;;;;;;5072241;28;20098;-83
2022/04/03 00:15:14;;;;;;;0.00;0.00;;;-0.60;99.90;;;;;;5072276;28;20053;-82
2022/04/03 00:17:41;;;;;;;0.00;0.00;;;-0.60;99.90;;;;;;5076115;28;20045;-83
2022/04/03 00:20:08;;;;;;;0.00;0.00;;;-0.50;99.90;;;;;;5059396;28;20049;-83
2022/04/03 00:22:37;;;;;;;0.00;0.00;;;-0.60;99.90;;;;;;5075991;28;20048;-83
2022/04/03 00:25:06;;;;;;;0.00;0.00;;;-0.60;99.90;;;;;;5059407;28;20052;-82
2022/04/03 00:27:32;;;;;;;0.00;0.00;;;-0.70;99.90;;;;;;5059300;28;20460;-83
2022/04/03 00:29:57;;;;;;;0.10;0.00;;;-0.70;99.90;;;;;;5059887;28;20099;-83
2022/04/03 00:32:23;;;;;;;0.17;0.17;;;-0.70;99.90;;;;;;5075959;28;20043;-83
2022/04/03 00:34:52;;;;;;;0.00;0.00;;;-0.70;99.90;;;;;;5075430;28;20428;-83
2022/04/03 00:37:18;;;;;;;0.00;0.00;;;-0.70;99.90;;;;;;5075995;28;20050;-82
2022/04/03 00:39:44;;;;;;;0.00;0.00;;;-0.80;99.90;;;;;;5075996;28;20128;-83
2022/04/03 00:42:09;;;;;;;2.30;0.22;;;-0.80;99.90;;;;;;5075819;28;20055;-82
2022/04/03 00:44:36;;;;;;;0.00;0.00;;;-0.80;99.90;;;;;;5075593;28;20495;-83
2022/04/03 00:47:03;;;;;;;0.00;0.00;;;-0.80;99.90;;;;;;5058760;28;20040;-83
2022/04/03 00:49:30;;;;;;;0.03;0.00;;;-0.90;99.90;;;;;;5059135;28;20067;-82
2022/04/03 00:51:55;;;;;;;1.98;0.65;;;-0.90;99.90;;;;;;5058960;28;20048;-82
2022/04/03 00:54:21;;;;;;;0.00;0.00;;;-0.90;99.90;;;;;;5075577;28;20041;-83
2022/04/03 00:56:47;;;;;;;0.00;0.00;;;-0.90;99.90;;;;;;5058242;28;20049;-84
2022/04/03 00:59:14;;;;;;;0.00;0.00;;;-0.90;99.90;;;;;;5058866;28;20044;-83
2022/04/03 01:01:41;;;;;;;0.00;0.00;;;-1.00;99.90;;;;;;5075116;28;20508;-83
2022/04/03 01:04:07;;;;;;;0.00;0.00;;;-0.90;99.90;;;;;;5075310;28;20052;-83
2022/04/03 01:06:33;;;;;;;0.00;0.00;;;-0.90;99.90;;;;;;5058235;28;20405;-83
2022/04/03 01:08:59;;;;;;;0.00;0.00;;;-1.00;99.90;;;;;;5058206;28;20144;-83
2022/04/03 01:11:25;;;;;;;0.00;0.00;;;-1.00;99.90;;;;;;5058314;28;20056;-83
2022/04/03 01:13:52;;;;;;;0.00;0.00;;;-0.90;99.90;;;;;;5058485;28;20492;-83
2022/04/03 01:16:19;;;;;;;0.00;0.00;;;-0.90;99.90;;;;;;5074902;28;20499;-83
2022/04/03 01:18:45;;;;;;;0.43;0.20;;;-0.90;99.90;;;;;;5075481;28;20415;-83
2022/04/03 01:21:11;;;;;;;0.20;0.20;;;-0.90;99.90;;;;;;5074887;28;20056;-83
2022/04/03 01:23:37;;;;;;;0.00;0.00;;;-0.90;99.90;;;;;;5058383;28;20392;-83
2022/04/03 01:26:03;;;;;;;0.00;0.00;;;-1.00;99.90;;;;;;5058069;28;20048;-83
2022/04/03 01:28:29;;;;;;;0.00;0.00;;;-1.00;99.90;;;;;;5057877;28;20165;-83
2022/04/03 01:30:55;;;;;;;0.00;0.00;;;-1.00;99.90;;;;;;5057734;28;20044;-83
2022/04/03 01:33:21;;;;;;;0.00;0.00;;;-1.00;99.90;;;;;;5057879;28;20060;-83
2022/04/03 01:35:47;;;;;;;0.00;0.00;;;-1.10;99.90;;;;;;5057994;28;20105;-83
2022/04/03 01:38:12;;;;;;;0.00;0.00;;;-1.10;99.90;;;;;;5058030;28;20415;-83
2022/04/03 01:40:38;;;;;;;0.00;0.00;;;-1.00;99.90;;;;;;5058111;28;20151;-83
2022/04/03 01:43:08;;;;;;;0.00;0.00;;;-1.10;99.90;;;;;;5058143;28;20044;-83
2022/04/03 01:45:35;;;;;;;1.88;0.70;;;-1.10;99.90;;;;;;5075090;28;20051;-83
2022/04/03 01:48:05;;;;;;;0.00;0.00;;;-1.10;99.90;;;;;;5058093;28;20051;-83
2022/04/03 01:50:34;;;;;;;0.00;0.00;;;-1.10;99.90;;;;;;5058156;28;20373;-83
2022/04/03 01:53:00;;;;;;;0.00;0.00;;;-1.10;99.90;;;;;;5057639;28;20101;-83
2022/04/03 01:55:26;;;;;;;0.00;0.00;;;-1.10;99.90;;;;;;5057740;28;20033;-83
2022/04/03 01:57:55;;;;;;;0.00;0.00;;;-1.10;99.90;;;;;;5074562;28;20102;-83
2022/04/03 02:00:21;;;;;;;0.00;0.00;;;-1.10;99.90;;;;;;5056816;28;20040;-84
2022/04/03 02:02:50;;;;;;;0.00;0.00;;;-1.10;99.90;;;;;;5055956;28;20048;-83
2022/04/03 02:05:16;;;;;;;0.00;0.00;;;-1.10;99.90;;;;;;5071880;28;20044;-83
2022/04/03 02:07:42;;;;;;;0.00;0.00;;;-1.10;99.90;;;;;;5073069;28;20051;-83
2022/04/03 02:10:09;;;;;;;0.00;0.00;;;-1.20;99.90;;;;;;5056268;28;20061;-83
2022/04/03 02:12:36;;;;;;;0.25;0.00;;;-1.10;99.90;;;;;;5073037;28;20404;-82
2022/04/03 02:15:05;;;;;;;0.00;0.00;;;-1.20;99.90;;;;;;5073019;28;20040;-83
2022/04/03 02:17:31;;;;;;;0.00;0.00;;;-1.20;99.90;;;;;;5073246;28;20082;-82
2022/04/03 02:19:57;;;;;;;0.00;0.00;;;-1.20;99.90;;;;;;5073458;28;20037;-82
2022/04/03 02:22:22;;;;;;;1.55;0.10;;;-1.20;99.90;;;;;;5073661;28;20041;-82
2022/04/03 02:24:48;;;;;;;0.00;0.00;;;-1.00;99.90;;;;;;5073536;28;20404;-83
2022/04/03 02:27:14;;;;;;;0.00;0.00;;;-1.20;99.90;;;;;;5073767;28;20043;-82
2022/04/03 02:29:40;;;;;;;0.00;0.00;;;-1.20;99.90;;;;;;5073772;28;20058;-82
2022/04/03 02:32:06;;;;;;;0.00;0.00;;;-1.20;99.90;;;;;;5056972;28;20048;-82
2022/04/03 02:34:32;;;;;;;0.10;0.10;;;-1.30;99.90;;;;;;5073629;28;20041;-82
2022/04/03 02:36:57;;;;;;;0.00;0.00;;;-1.30;99.90;;;;;;5073921;28;20048;-82
2022/04/03 02:39:23;;;;;;;0.00;0.00;;;-1.00;99.90;;;;;;5055577;28;20101;-82
2022/04/03 02:41:49;;;;;;;0.10;0.08;;;-1.20;99.90;;;;;;5073508;28;20131;-82
2022/04/03 02:44:16;;;;;;;0.00;0.00;;;-1.20;99.90;;;;;;5056765;28;20084;-83
2022/04/03 02:46:41;;;;;;;0.00;0.00;;;-1.30;99.90;;;;;;5056684;28;20127;-82
2022/04/03 02:49:08;;;;;;;0.00;0.00;;;-1.20;99.90;;;;;;5073278;28;20136;-82
2022/04/03 02:51:35;;;;;;;0.52;0.52;;;-1.20;99.90;;;;;;5073665;28;20123;-82
2022/04/03 02:54:01;;;;;;;0.10;0.10;;;-1.20;99.90;;;;;;5073784;28;20447;-82
2022/04/03 02:56:27;;;;;;;0.00;0.00;;;-1.30;99.90;;;;;;5056344;28;20040;-83
2022/04/03 02:58:54;;;;;;;0.00;0.00;;;-1.30;99.90;;;;;;5056309;28;20051;-82
2022/04/03 03:01:20;;;;;;;0.00;0.00;;;-1.40;99.90;;;;;;5073104;28;20087;-83
2022/04/03 03:03:45;;;;;;;0.00;0.00;;;-1.40;99.90;;;;;;5073019;28;20168;-82
2022/04/03 03:06:11;;;;;;;0.13;0.13;;;-1.40;99.90;;;;;;5056978;28;20131;-82
2022/04/03 03:08:37;;;;;;;0.00;0.00;;;-1.40;99.90;;;;;;5072892;28;20408;-82
2022/04/03 03:11:06;;;;;;;0.00;0.00;;;-1.40;99.90;;;;;;5072454;28;20056;-82
2022/04/03 03:13:31;;;;;;;0.10;0.10;;;-1.40;99.90;;;;;;5072684;28;20091;-82
2022/04/03 03:15:57;;;;;;;0.20;0.10;;;-1.40;99.90;;;;;;5056257;28;20076;-82
2022/04/03 03:18:23;;;;;;;0.00;0.00;;;-1.40;99.90;;;;;;5055794;28;20041;-83
2022/04/03 03:20:49;;;;;;;0.00;0.00;;;-1.40;99.90;;;;;;5072226;28;20047;-82
2022/04/03 03:23:14;;;;;;;0.00;0.00;;;-1.40;99.90;;;;;;5072788;28;20040;-83
2022/04/03 03:25:40;;;;;;;0.00;0.00;;;-1.40;99.90;;;;;;5056141;28;20048;-82
2022/04/03 03:28:06;;;;;;;0.10;0.10;;;-1.40;99.90;;;;;;5072586;28;20037;-83
2022/04/03 03:30:34;;;;;;;0.00;0.00;;;-1.40;99.90;;;;;;5056206;28;20135;-83
2022/04/03 03:32:59;;;;;;;0.00;0.00;;;-1.30;99.90;;;;;;5072654;28;20138;-82
2022/04/03 03:35:25;;;;;;;0.00;0.00;;;-1.40;99.90;;;;;;5056120;28;20080;-83
2022/04/03 03:37:51;;;;;;;0.00;0.00;;;-1.40;99.90;;;;;;5056142;28;20087;-83
2022/04/03 03:40:16;;;;;;;2.05;0.30;;;-1.40;99.90;;;;;;5055897;28;20521;-83
2022/04/03 03:42:43;;;;;;;0.00;0.00;;;-1.40;99.90;;;;;;5055896;28;20052;-83
2022/04/03 03:45:14;;;;;;;0.00;0.00;;;-1.30;99.90;;;;;;5072600;28;20048;-83
2022/04/03 03:47:42;;;;;;;0.08;0.08;;;-1.40;99.90;;;;;;5056056;28;20056;-83
2022/04/03 03:50:08;;;;;;;0.00;0.00;;;-1.30;99.90;;;;;;5074265;28;20063;-83
2022/04/03 03:52:34;;;;;;;0.00;0.00;;;-1.30;99.90;;;;;;5076361;28;20127;-83
2022/04/03 03:54:59;;;;;;;0.00;0.00;;;-1.20;99.90;;;;;;5060233;28;20041;-83
2022/04/03 03:57:25;;;;;;;0.00;0.00;;;-1.10;99.90;;;;;;5076692;28;20075;-83
2022/04/03 03:59:52;;;;;;;0.00;0.00;;;-1.10;99.90;;;;;;5059935;28;20100;-83
2022/04/03 04:02:21;;;;;;;0.30;0.10;;;-1.00;99.90;;;;;;5076588;28;20090;-82
2022/04/03 04:04:47;;;;;;;0.00;0.00;;;-0.90;99.90;;;;;;5059978;28;20507;-83
2022/04/03 04:07:12;;;;;;;0.00;0.00;;;-0.90;99.90;;;;;;5059610;28;20484;-83
2022/04/03 04:09:39;;;;;;;0.00;0.00;;;-0.80;99.90;;;;;;5059583;28;20053;-83
2022/04/03 04:12:09;;;;;;;0.00;0.00;;;-0.20;99.90;;;;;;5059735;28;20059;-83
2022/04/03 04:14:35;;;;;;;0.00;0.00;;;-0.70;99.90;;;;;;5076365;28;20048;-83
2022/04/03 04:17:01;;;;;;;0.00;0.00;;;-0.60;99.90;;;;;;5059955;28;20136;-83
2022/04/03 04:19:28;;;;;;;0.52;0.52;;;-0.60;99.90;;;;;;5058971;28;20114;-83
2022/04/03 04:21:54;;;;;;;0.00;0.00;;;-0.60;99.90;;;;;;5076225;28;20082;-83
2022/04/03 04:24:19;;;;;;;0.13;0.13;;;-0.50;99.90;;;;;;5075952;28;20083;-83
2022/04/03 04:26:45;;;;;;;0.00;0.00;;;-0.50;99.90;;;;;;5059435;28;20490;-83
2022/04/03 04:29:11;;;;;;;0.00;0.00;;;-0.40;99.90;;;;;;5059346;28;20045;-82
2022/04/03 04:31:37;;;;;;;0.00;0.00;;;-0.40;99.90;;;;;;5059920;28;20052;-82
2022/04/03 04:34:03;;;;;;;0.00;0.00;;;-0.40;99.90;;;;;;5059436;28;20131;-82
2022/04/03 04:36:29;;;;;;;0.00;0.00;;;-0.30;99.90;;;;;;5075476;28;20047;-82
2022/04/03 04:38:56;;;;;;;0.00;0.00;;;-0.30;99.90;;;;;;5059127;28;20044;-83
2022/04/03 04:41:21;;;;;;;1.00;0.22;;;-0.30;99.90;;;;;;5059321;28;20057;-82
2022/04/03 04:43:47;;;;;;;0.20;0.20;;;-0.20;99.90;;;;;;5058965;28;20093;-83
2022/04/03 04:46:13;;;;;;;0.00;0.00;;;-0.20;99.90;;;;;;5075650;28;20045;-82
2022/04/03 04:48:38;;;;;;;0.00;0.00;;;-0.20;99.90;;;;;;5059031;28;20472;-83
2022/04/03 04:51:04;;;;;;;0.00;0.00;;;-0.20;99.90;;;;;;5058706;28;20060;-83
2022/04/03 04:53:30;;;;;;;0.20;0.20;;;-0.20;99.90;;;;;;5059261;28;20052;-83
2022/04/03 04:55:55;;;;;;;0.00;0.00;;;-0.20;99.90;;;;;;5075201;28;20399;-83
2022/04/03 04:58:21;;;;;;;0.00;0.00;;;0.00;99.90;;;;;;5075102;28;20377;-84
2022/04/03 05:00:47;;;;;;;0.00;0.00;;;-0.10;99.90;;;;;;5075411;28;20135;-84
2022/04/03 05:03:12;;;;;;;0.00;0.00;;;-0.10;99.90;;;;;;5074966;28;20048;-84
2022/04/03 05:05:39;;;;;;;0.10;0.10;;;-0.10;99.90;;;;;;5075434;28;20040;-84
2022/04/03 05:08:05;;;;;;;0.00;0.00;;;-0.10;99.90;;;;;;5058833;28;20049;-84
2022/04/03 05:10:31;;;;;;;0.40;0.30;;;-0.10;99.90;;;;;;5074759;28;20049;-84
2022/04/03 05:12:59;;;;;;;0.08;0.08;;;-0.10;99.90;;;;;;5058554;28;20049;-84
2022/04/03 05:15:27;;;;;;;0.00;0.00;;;-0.10;99.90;;;;;;5074878;28;20051;-84
2022/04/03 05:17:53;;;;;;;0.00;0.00;;;-0.10;99.90;;;;;;5075676;28;20144;-84
2022/04/03 05:20:19;;;;;;;0.00;0.00;;;-0.10;99.90;;;;;;5074932;28;20076;-84
2022/04/03 05:22:45;;;;;;;0.00;0.00;;;0.00;99.90;;;;;;5058225;28;20503;-84
2022/04/03 05:25:11;;;;;;;0.00;0.00;;;0.00;99.90;;;;;;5058428;28;20044;-84
2022/04/03 05:27:39;;;;;;;0.00;0.00;;;0.00;99.90;;;;;;5074901;28;20087;-84
2022/04/03 05:30:05;;;;;;;0.00;0.00;;;0.00;99.90;;;;;;5058118;28;20506;-84
2022/04/03 05:32:32;;;;;;;0.00;0.00;;;0.10;99.90;;;;;;5074461;28;20385;-84
2022/04/03 05:34:58;;;;;;;0.00;0.00;;;0.10;99.90;;;;;;5057812;28;20582;-84
2022/04/03 05:37:24;;;;;;;0.00;0.00;;;0.10;99.90;;;;;;5057916;28;20455;-84
2022/04/03 05:39:51;;;;;;;0.25;0.10;;;0.20;99.90;;;;;;5058064;28;20484;-84
2022/04/03 05:42:18;;;;;;;0.00;0.00;;;0.10;99.90;;;;;;5057826;28;20052;-84
2022/04/03 05:44:44;;;;;;;0.00;0.00;;;0.10;99.90;;;;;;5058018;28;20127;-83
2022/04/03 05:47:09;;;;;;;0.00;0.00;;;0.20;99.90;;;;;;5074342;28;20077;-84
2022/04/03 05:49:35;;;;;;;0.22;0.22;;;0.20;99.90;;;;;;5057789;28;20052;-84
2022/04/03 05:52:01;;;;;;;0.30;0.30;;;0.20;99.90;;;;;;5074273;28;20053;-83
2022/04/03 05:54:27;;;;;;;0.00;0.00;;;0.30;99.90;;;;;;5057882;28;20051;-84
2022/04/03 05:56:53;;;;;;;0.00;0.00;;;0.40;99.90;;;;;;5074050;28;20048;-84
2022/04/03 05:59:19;;;;;;;0.00;0.00;;;0.50;99.90;;;;;;5057554;28;20036;-84
2022/04/03 06:01:46;;;;;;;0.00;0.00;;;0.60;99.90;;;;;;5058044;28;20067;-84
2022/04/03 06:04:12;;;;;;;0.00;0.00;;;0.60;99.90;;;;;;5057639;28;20045;-84
2022/04/03 06:06:38;;;;;;;0.00;0.00;;;0.70;99.90;;;;;;5074248;28;20519;-84
2022/04/03 06:09:04;;;;;;;0.00;0.00;;;0.80;99.90;;;;;;5074159;28;20048;-85
2022/04/03 06:11:30;;;;;;;0.00;0.00;;;0.90;99.90;;;;;;5073860;28;20048;-85
2022/04/03 06:13:56;;;;;;;0.00;0.00;;;0.90;99.90;;;;;;5057250;28;20143;-85
2022/04/03 06:16:21;;;;;;;0.00;0.00;;;1.00;99.90;;;;;;5057084;28;20086;-84
2022/04/03 06:18:47;;;;;;;0.00;0.00;;;1.00;99.90;;;;;;5057687;28;20052;-85
2022/04/03 06:21:13;;;;;;;0.00;0.00;;;1.00;99.90;;;;;;5056263;28;20072;-86
2022/04/03 06:23:38;;;;;;;0.00;0.00;;;1.00;99.90;;;;;;5047255;28;20056;-85
2022/04/03 06:26:04;;;;;;;0.63;0.30;;;1.10;99.90;;;;;;5061720;28;20040;-85
2022/04/03 06:28:30;;;;;;;0.00;0.00;;;1.10;99.90;;;;;;5037459;28;20064;-84
2022/04/03 06:30:56;;;;;;;0.00;0.00;;;1.20;99.90;;;;;;5037189;28;20503;-85
2022/04/03 06:33:23;;;;;;;0.00;0.00;;;1.20;99.90;;;;;;5053669;28;20123;-85
2022/04/03 06:35:49;;;;;;;0.00;0.00;;;1.20;99.90;;;;;;5053581;28;20037;-86
2022/04/03 06:38:15;;;;;;;0.00;0.00;;;1.30;99.90;;;;;;5053765;28;20052;-86
2022/04/03 06:40:48;;;;;;;0.08;0.05;;;1.40;99.90;;;;;;5036900;28;20099;-85
2022/04/03 06:43:20;;;;;;;0.00;0.00;;;1.40;99.90;;;;;;5037253;28;20187;-85
2022/04/03 06:45:47;;;;;;;0.00;0.00;;;1.80;99.90;;;;;;5039554;28;20514;-85
2022/04/03 06:48:14;;;;;;;0.00;0.00;;;2.50;99.90;;;;;;5041422;28;20076;-85
2022/04/03 06:50:39;;;;;;;0.00;0.00;;;3.20;99.90;;;;;;5036674;28;20132;-85
2022/04/03 06:53:05;;;;;;;0.00;0.00;;;3.80;99.90;;;;;;5053485;28;20496;-85
2022/04/03 06:55:31;;;;;;;0.00;0.00;;;4.40;99.90;;;;;;5053114;28;20041;-85
2022/04/03 06:57:57;;;;;;;0.00;0.00;;;5.00;99.90;;;;;;5037149;28;20041;-85
2022/04/03 07:00:22;;;;;;;0.03;0.00;;;6.00;99.90;;;;;;5036500;28;20053;-85
2022/04/03 07:02:51;;;;;;;0.20;0.00;;;6.50;99.90;;;;;;5036438;28;20052;-85
2022/04/03 07:05:18;;;;;;;0.20;0.15;;;7.00;99.90;;;;;;5053020;28;20041;-85
2022/04/03 07:07:44;;;;;;;0.00;0.00;;;7.00;99.90;;;;;;5052910;28;20442;-85
2022/04/03 07:10:10;;;;;;;0.00;0.00;;;7.00;99.90;;;;;;5036116;28;20135;-85
2022/04/03 07:12:36;;;;;;;0.00;0.00;;;6.90;99.90;;;;;;5036298;28;20481;-85
2022/04/03 07:15:04;;;;;;;0.00;0.00;;;7.30;99.90;;;;;;5036764;28;20159;-85
2022/04/03 07:17:30;;;;;;;0.10;0.10;;;7.70;99.90;;;;;;5036427;28;20053;-86
2022/04/03 07:19:55;;;;;;;0.00;0.00;;;8.20;99.90;;;;;;5035959;28;20064;-85
2022/04/03 07:22:21;;;;;;;0.00;0.00;;;8.90;99.90;;;;;;5035934;28;20049;-86
2022/04/03 07:24:47;;;;;;;0.20;0.20;;;9.40;98.90;;;;;;5035583;28;20068;-86
2022/04/03 07:27:12;;;;;;;0.00;0.00;;;9.70;96.80;;;;;;5035869;28;20530;-85
2022/04/03 07:29:39;;;;;;;0.00;0.00;;;9.40;95.90;;;;;;5052636;28;20041;-86
2022/04/03 07:32:05;;;;;;;0.00;0.00;;;9.20;96.80;;;;;;5035912;28;20182;-86
2022/04/03 07:34:31;;;;;;;0.10;0.00;;;9.70;97.20;;;;;;5052630;28;20045;-86
2022/04/03 07:36:57;;;;;;;0.00;0.00;;;10.60;96.20;;;;;;5035791;28;20063;-86
2022/04/03 07:39:24;;;;;;;0.00;0.00;;;11.70;94.60;;;;;;5035930;28;20460;-86
2022/04/03 07:41:50;;;;;;;0.00;0.00;;;12.20;91.80;;;;;;5035965;28;20063;-85
2022/04/03 07:44:16;;;;;;;0.00;0.00;;;12.40;89.90;;;;;;5035951;28;20049;-85
2022/04/03 07:46:42;;;;;;;0.00;0.00;;;12.50;87.90;;;;;;5052713;28;20098;-85
2022/04/03 07:49:07;;;;;;;0.00;0.00;;;12.70;87.90;;;;;;5035026;28;20102;-85
2022/04/03 07:51:34;;;;;;;0.00;0.00;;;13.00;85.70;;;;;;5052446;28;20047;-85
2022/04/03 07:54:00;;;;;;;0.00;0.00;;;13.20;83.90;;;;;;5052065;28;20057;-85
2022/04/03 07:56:25;;;;;;;0.00;0.00;;;13.50;82.30;;;;;;5035384;28;20087;-85
2022/04/03 07:58:51;;;;;;;0.00;0.00;;;13.30;81.90;;;;;;5035977;28;20045;-85
2022/04/03 08:01:17;;;;;;;0.00;0.00;;;12.90;80.00;;;;;;5052316;28;20087;-84
2022/04/03 08:03:42;;;;;;;0.00;0.00;;;12.50;82.50;;;;;;5035821;28;20476;-84
2022/04/03 08:06:09;;;;;;;0.00;0.00;;;12.20;83.20;;;;;;5052452;28;20141;-84
2022/04/03 08:08:35;;;;;;;0.00;0.00;;;11.70;82.70;;;;;;5035919;28;20072;-84
2022/04/03 08:11:00;;;;;;;3.70;0.65;;;11.20;83.10;;;;;;5035385;28;20052;-84
2022/04/03 08:13:26;;;;;;;0.00;0.00;;;10.60;84.40;;;;;;5061021;28;20177;-86
2022/04/03 08:15:52;;;;;;;0.00;0.00;;;10.40;88.20;;;;;;5042222;28;20041;-86
2022/04/03 08:18:19;;;;;;;0.00;0.00;;;9.90;88.90;;;;;;5033331;28;20564;-83
2022/04/03 08:20:45;;;;;;;0.00;0.00;;;9.70;90.70;;;;;;5033983;28;20393;-85
2022/04/03 08:23:11;;;;;;;0.10;0.10;;;9.50;90.70;;;;;;5051794;28;20056;-83
2022/04/03 08:25:37;;;;;;;0.00;0.00;;;9.30;91.60;;;;;;5051820;28;20053;-83
2022/04/03 08:28:03;;;;;;;0.00;0.00;;;9.00;91.60;;;;;;5035400;28;20481;-83
2022/04/03 08:30:35;;;;;;;0.10;0.10;;;8.80;92.00;;;;;;5052135;28;20052;-83
2022/04/03 08:33:04;;;;;;;0.00;0.00;;;8.80;92.50;;;;;;5056091;28;20056;-84
2022/04/03 08:35:31;;;;;;;0.00;0.00;;;8.70;92.70;;;;;;5053770;28;20087;-84
2022/04/03 08:37:58;;;;;;;0.00;0.00;;;8.80;94.10;;;;;;5054012;28;20057;-84
2022/04/03 08:40:25;;;;;;;1.27;0.40;;;9.00;93.70;;;;;;5074063;28;20131;-84
2022/04/03 08:42:53;;;;;;;0.00;0.00;;;9.10;92.70;;;;;;5057442;28;20044;-84
2022/04/03 08:45:19;;;;;;;0.00;0.00;;;9.20;92.50;;;;;;5056977;28;20049;-84
2022/04/03 08:47:56;;;;;;;0.00;0.00;;;9.20;92.10;;;;;;5074275;28;20044;-84
2022/04/03 08:50:27;;;;;;;0.00;0.00;;;9.00;91.90;;;;;;5057321;28;20044;-85
2022/04/03 08:52:54;;;;;;;0.00;0.00;;;8.80;91.60;;;;;;5056810;28;20057;-84
2022/04/03 08:55:21;;;;;;;0.00;0.00;;;8.80;92.10;;;;;;5056644;28;20055;-85
2022/04/03 08:57:47;;;;;;;0.00;0.00;;;8.80;93.10;;;;;;5073962;28;20404;-85
2022/04/03 09:00:14;;;;;;;0.00;0.00;;;8.70;92.70;;;;;;5073557;28;20156;-85
2022/04/03 09:02:45;;;;;;;0.00;0.00;;;8.60;93.30;;;;;;5057268;28;20090;-84
2022/04/03 09:05:14;;;;;;;0.00;0.00;;;8.50;93.30;;;;;;5073727;28;20052;-84
2022/04/03 09:07:41;;;;;;;0.00;0.00;;;8.40;93.20;;;;;;5073531;28;20045;-85
2022/04/03 09:10:16;;;;;;;0.00;0.00;;;8.40;93.30;;;;;;5073364;28;20515;-84
2022/04/03 09:12:42;;;;;;;0.00;0.00;;;8.30;93.50;;;;;;5056534;28;20516;-84
2022/04/03 09:15:15;;;;;;;0.00;0.00;;;8.20;93.30;;;;;;5073001;28;20131;-85
2022/04/03 09:17:46;;;;;;;0.00;0.00;;;8.10;93.20;;;;;;5057260;28;20106;-84
2022/04/03 09:20:17;;;;;;;0.00;0.00;;;8.20;93.10;;;;;;5056626;28;20044;-85
2022/04/03 09:22:45;;;;;;;0.00;0.00;;;8.00;93.30;;;;;;5056829;28;20127;-84
2022/04/03 09:25:12;;;;;;;0.00;0.00;;;8.40;92.90;;;;;;5056177;28;20040;-84
2022/04/03 09:27:59;;;;;;;2.97;0.43;;;8.50;92.40;;;;;;5058212;28;20048;-84
2022/04/03 09:30:51;;;;;;;0.00;0.00;;;8.70;92.70;;;;;;5058521;28;20064;-84
2022/04/03 09:33:20;;;;;;;0.10;0.00;;;8.70;92.50;;;;;;5056228;28;20133;-84
2022/04/03 09:36:02;;;;;;;0.00;0.00;;;8.70;92.80;;;;;;5075511;28;20050;-84
2022/04/03 09:38:30;;;;;;;0.10;0.10;;;9.00;92.80;;;;;;5074936;28;20059;-84
2022/04/03 09:40:58;;;;;;;0.10;0.00;;;9.30;93.30;;;;;;5074532;28;20503;-84
2022/04/03 09:43:27;;;;;;;0.00;0.00;;;9.60;91.60;;;;;;5074782;28;20140;-84
2022/04/03 09:45:58;;;;;;;0.00;0.00;;;10.00;91.80;;;;;;5074601;28;20509;-85
2022/04/03 09:48:41;;;;;;;0.00;0.00;;;10.50;90.90;;;;;;5057495;28;20508;-85
2022/04/03 09:51:09;;;;;;;0.00;0.00;;;10.80;90.00;;;;;;5058395;28;20098;-85
2022/04/03 09:53:45;;;;;;;0.00;0.00;;;10.90;88.50;;;;;;5057758;28;20480;-85
2022/04/03 09:56:13;;;;;;;0.00;0.00;;;10.70;86.90;;;;;;5074271;28;20045;-85
2022/04/03 09:58:51;;;;;;;0.00;0.00;;;10.50;86.60;;;;;;5074244;28;20052;-85
2022/04/03 10:01:42;;;;;;;0.00;0.00;;;10.40;87.80;;;;;;5057605;28;20048;-84
2022/04/03 10:04:09;;;;;;;0.00;0.00;;;10.50;88.90;;;;;;5020268;28;20067;-84
2022/04/03 10:06:36;;;;;;;0.00;0.00;;;10.40;86.70;;;;;;5020082;28;20049;-84
2022/04/03 10:09:02;;;;;;;0.00;0.00;;;10.30;85.10;;;;;;5036503;28;20075;-84
2022/04/03 10:11:29;;;;;;;0.00;0.00;;;10.50;85.00;;;;;;5036149;28;20061;-84
2022/04/03 10:13:55;;;;;;;0.00;0.00;;;10.80;83.20;;;;;;5019844;28;20480;-85
2022/04/03 10:16:22;;;;;;;0.00;0.00;;;10.90;81.70;;;;;;5035824;28;20436;-85
2022/04/03 10:18:49;;;;;;;0.10;0.10;;;10.80;79.10;;;;;;5036213;28;20052;-85
2022/04/03 10:21:51;;;;;;;0.05;0.00;;;10.70;80.80;;;;;;5019030;28;20455;-84
2022/04/03 10:24:25;;;;;;;0.00;0.00;;;10.50;84.90;;;;;;4961216;28;20102;-84
2022/04/03 10:27:04;;;;;;;0.00;0.00;;;10.50;87.80;;;;;;4977322;28;20050;-84
2022/04/03 10:29:32;;;;;;;0.00;0.00;;;10.80;90.70;;;;;;4977313;28;20054;-84
2022/04/03 10:31:59;;;;;;;0.00;0.00;;;11.00;86.20;;;;;;4961118;28;20089;-85
2022/04/03 10:34:28;;;;;;;0.00;0.00;;;10.90;84.90;;;;;;4977088;28;20089;-84
2022/04/03 10:36:54;;;;;;;0.00;0.00;;;10.60;82.00;;;;;;4976924;28;20487;-85
2022/04/03 10:39:30;;;;;;;0.20;0.10;;;10.30;83.10;;;;;;4960801;28;20054;-84
2022/04/03 10:42:16;;;;;;;0.00;0.00;;;10.10;85.10;;;;;;4993386;28;20064;-84
2022/04/03 10:44:41;;;;;;;0.00;0.00;;;10.00;85.40;;;;;;5015892;28;20374;-84
2022/04/03 10:47:13;;;;;;;0.00;0.00;;;9.90;84.90;;;;;;5000101;28;20057;-84
2022/04/03 10:49:48;;;;;;;0.00;0.00;;;10.00;85.50;;;;;;5015794;28;20045;-85
2022/04/03 10:52:24;;;;;;;0.00;0.00;;;10.10;85.60;;;;;;5016359;28;20119;-85
2022/04/03 10:54:52;;;;;;;0.00;0.00;;;10.40;85.10;;;;;;5016280;28;20057;-85
2022/04/03 10:57:36;;;;;;;0.00;0.00;;;10.40;84.10;;;;;;5015331;28;20041;-86
2022/04/03 11:00:14;;;;;;;0.00;0.00;;;10.40;85.50;;;;;;5029339;28;20048;-85
2022/04/03 11:02:40;;;;;;;0.00;0.00;;;10.40;84.90;;;;;;5055966;28;20059;-85
2022/04/03 11:05:26;;;;;;;0.00;0.00;;;10.40;86.20;;;;;;5072979;28;20052;-86
2022/04/03 11:08:02;;;;;;;0.00;0.00;;;10.50;88.20;;;;;;5072758;28;20052;-85
2022/04/03 11:11:06;;;;;;;0.00;0.00;;;10.50;87.30;;;;;;5073169;28;20071;-85
2022/04/03 11:13:35;;;;;;;0.00;0.00;;;10.60;89.90;;;;;;5056357;28;20047;-85
2022/04/03 11:16:03;;;;;;;0.00;0.00;;;10.80;88.30;;;;;;5073172;28;20051;-86
2022/04/03 11:18:37;;;;;;;0.10;0.00;;;10.70;84.10;;;;;;5056343;28;20150;-85
2022/04/03 11:21:08;;;;;;;0.00;0.00;;;10.80;83.10;;;;;;5055898;28;20516;-86
2022/04/03 11:23:35;;;;;;;0.10;0.10;;;10.80;81.80;;;;;;5056325;28;20279;-85
2022/04/03 11:26:05;;;;;;;0.00;0.00;;;10.80;82.70;;;;;;5072701;28;20139;-85
2022/04/03 11:28:36;;;;;;;0.00;0.00;;;10.70;79.10;;;;;;5056273;28;20097;-85
2022/04/03 11:31:04;;;;;;;0.00;0.00;;;10.40;78.50;;;;;;5056556;28;20052;-86
2022/04/03 11:33:31;;;;;;;0.00;0.00;;;10.30;80.80;;;;;;5055975;28;20056;-85
2022/04/03 11:36:07;;;;;;;10.50;0.43;;;10.20;80.70;;;;;;5055796;28;20394;-86
2022/04/03 11:38:35;;;;;;;0.00;0.00;;;10.20;80.30;;;;;;5072551;28;20049;-85
2022/04/03 11:41:06;;;;;;;0.00;0.00;;;10.20;80.90;;;;;;5072549;28;20044;-85
2022/04/03 11:43:33;;;;;;;0.00;0.00;;;10.60;81.70;;;;;;5055628;28;20040;-86
2022/04/03 11:46:00;;;;;;;0.00;0.00;;;10.90;78.80;;;;;;5055925;28;20136;-86
2022/04/03 11:48:29;;;;;;;0.00;0.00;;;11.20;77.30;;;;;;5071889;28;20063;-86
2022/04/03 11:51:08;;;;;;;0.00;0.00;;;11.70;79.70;;;;;;5072500;28;20102;-86
2022/04/03 11:53:35;;;;;;;0.00;0.00;;;12.40;81.50;;;;;;5055746;28;20053;-85
2022/04/03 11:56:07;;;;;;;0.00;0.00;;;12.80;78.60;;;;;;5055818;28;20040;-86
2022/04/03 11:58:36;;;;;;;0.00;0.00;;;13.30;77.20;;;;;;5071579;28;20064;-86
2022/04/03 12:01:05;;;;;;;0.00;0.00;;;13.40;77.00;;;;;;5072551;28;20055;-86
2022/04/03 12:03:43;;;;;;;0.00;0.00;;;13.70;74.10;;;;;;5072829;28;20135;-86
2022/04/03 12:06:19;;;;;;;0.00;0.00;;;14.00;76.80;;;;;;5055553;28;20080;-86
2022/04/03 12:08:47;;;;;;;0.00;0.00;;;14.10;72.70;;;;;;5055279;28;20511;-86
2022/04/03 12:11:24;;;;;;;0.00;0.00;;;13.90;71.80;;;;;;5056562;28;20056;-85
2022/04/03 12:13:55;;;;;;;0.00;0.00;;;13.50;71.60;;;;;;5059670;28;20087;-85
2022/04/03 12:16:26;;;;;;;0.63;0.30;;;13.20;72.80;;;;;;5059439;28;20153;-86
2022/04/03 12:19:00;;;;;;;0.00;0.00;;;12.80;67.90;;;;;;5076375;28;20044;-86
2022/04/03 12:21:45;;;;;;;0.00;0.00;;;12.70;68.40;;;;;;5059616;28;20080;-86
2022/04/03 12:24:19;;;;;;;0.00;0.00;;;12.50;71.70;;;;;;5059343;28;20040;-85
2022/04/03 12:26:59;;;;;;;0.00;0.00;;;12.20;71.60;;;;;;5059139;28;20044;-85
2022/04/03 12:29:27;;;;;;;0.22;0.00;;;11.90;70.30;;;;;;5075860;28;20298;-85
2022/04/03 12:32:00;;;;;;;0.00;0.00;;;11.60;70.30;;;;;;5059207;28;20052;-86
2022/04/03 12:34:28;;;;;;;0.00;0.00;;;11.40;71.80;;;;;;5075872;28;20079;-85
2022/04/03 12:36:59;;;;;;;0.00;0.00;;;11.30;71.80;;;;;;5075520;28;20408;-86
2022/04/03 12:39:30;;;;;;;0.00;0.00;;;11.20;72.00;;;;;;5074958;28;20056;-86
2022/04/03 12:41:57;;;;;;;0.00;0.00;;;11.20;72.50;;;;;;5058768;28;20583;-85
2022/04/03 12:44:23;;;;;;;0.00;0.00;;;11.10;73.30;;;;;;5075652;28;20136;-86
2022/04/03 12:46:49;;;;;;;0.00;0.00;;;11.10;72.40;;;;;;5075599;28;20135;-85
2022/04/03 12:49:16;;;;;;;0.00;0.00;;;10.90;71.60;;;;;;5058910;28;20055;-90
2022/04/03 12:51:46;;;;;;;0.00;0.00;;;10.90;73.10;;;;;;5075321;28;20526;-89
2022/04/03 12:54:47;;;;;;;0.00;0.00;;;10.70;73.20;;;;;;5076098;28;20052;-90